sensor_id;sensor_type;location;lat;lon;timestamp;temperature;humidity
13488;DHT22;6816;48.506;9.050;2023-03-01T00:02:22;0.90;96.30
13488;DHT22;6816;48.506;9.050;2023-03-01T00:05:22;0.70;96.20
13488;DHT22;6816;48.506;9.050;2023-03-01T00:08:24;0.70;96.10
13488;DHT22;6816;48.506;9.050;2023-03-01T00:11:28;0.60;96.00
13488;DHT22;6816;48.506;9.050;2023-03-01T00:14:29;0.60;95.70
13488;DHT22;6816;48.506;9.050;2023-03-01T00:17:30;0.60;96.00
13488;DHT22;6816;48.506;9.050;2023-03-01T00:20:32;0.70;96.00
13488;DHT22;6816;48.506;9.050;2023-03-01T00:23:37;0.50;96.00
13488;DHT22;6816;48.506;9.050;2023-03-01T00:26:37;0.40;95.60
13488;DHT22;6816;48.506;9.050;2023-03-01T00:29:38;0.40;95.90
13488;DHT22;6816;48.506;9.050;2023-03-01T00:32:39;0.30;95.90
13488;DHT22;6816;48.506;9.050;2023-03-01T00:35:39;0.30;95.90
13488;DHT22;6816;48.506;9.050;2023-03-01T00:38:42;0.20;95.80
13488;DHT22;6816;48.506;9.050;2023-03-01T00:41:43;0.20;95.70
13488;DHT22;6816;48.506;9.050;2023-03-01T00:44:44;0.20;95.80
13488;DHT22;6816;48.506;9.050;2023-03-01T00:47:45;0.10;95.70
13488;DHT22;6816;48.506;9.050;2023-03-01T00:50:45;0.10;95.60
13488;DHT22;6816;48.506;9.050;2023-03-01T00:53:47;0.10;95.60
13488;DHT22;6816;48.506;9.050;2023-03-01T00:56:47;0.00;95.60
13488;DHT22;6816;48.506;9.050;2023-03-01T00:59:48;0.00;95.60
13488;DHT22;6816;48.506;9.050;2023-03-01T01:02:49;0.00;95.60
13488;DHT22;6816;48.506;9.050;2023-03-01T01:05:50;0.00;95.60
13488;DHT22;6816;48.506;9.050;2023-03-01T01:08:52;-0.10;95.50
13488;DHT22;6816;48.506;9.050;2023-03-01T01:11:53;-0.10;95.50
13488;DHT22;6816;48.506;9.050;2023-03-01T01:14:54;-0.20;95.50
13488;DHT22;6816;48.506;9.050;2023-03-01T01:17:55;-0.20;95.40
13488;DHT22;6816;48.506;9.050;2023-03-01T01:20:55;-0.20;95.40
13488;DHT22;6816;48.506;9.050;2023-03-01T01:23:56;-0.20;95.40
13488;DHT22;6816;48.506;9.050;2023-03-01T01:26:57;-0.30;95.40
13488;DHT22;6816;48.506;9.050;2023-03-01T01:29:58;-0.30;95.40
13488;DHT22;6816;48.506;9.050;2023-03-01T01:32:58;-0.30;95.40
13488;DHT22;6816;48.506;9.050;2023-03-01T01:35:59;-0.30;95.20
13488;DHT22;6816;48.506;9.050;2023-03-01T01:39:00;-0.30;95.10
13488;DHT22;6816;48.506;9.050;2023-03-01T01:42:01;-0.40;95.00
13488;DHT22;6816;48.506;9.050;2023-03-01T01:45:26;-0.40;95.00
13488;DHT22;6816;48.506;9.050;2023-03-01T01:56:24;-0.50;95.10
13488;DHT22;6816;48.506;9.050;2023-03-01T01:59:27;-0.20;96.00
13488;DHT22;6816;48.506;9.050;2023-03-01T02:02:30;-0.50;96.40
13488;DHT22;6816;48.506;9.050;2023-03-01T02:05:45;-0.40;96.90
13488;DHT22;6816;48.506;9.050;2023-03-01T02:08:49;-0.30;96.90
13488;DHT22;6816;48.506;9.050;2023-03-01T02:11:52;-0.20;97.30
13488;DHT22;6816;48.506;9.050;2023-03-01T02:14:53;-0.20;97.60
13488;DHT22;6816;48.506;9.050;2023-03-01T02:17:54;-0.10;97.80
13488;DHT22;6816;48.506;9.050;2023-03-01T02:21:23;0.20;97.90
13488;DHT22;6816;48.506;9.050;2023-03-01T02:30:57;0.20;98.10
13488;DHT22;6816;48.506;9.050;2023-03-01T02:34:19;0.20;98.50
13488;DHT22;6816;48.506;9.050;2023-03-01T02:37:22;0.30;98.40
13488;DHT22;6816;48.506;9.050;2023-03-01T02:40:25;0.30;98.50
13488;DHT22;6816;48.506;9.050;2023-03-01T02:43:29;0.40;98.70
13488;DHT22;6816;48.506;9.050;2023-03-01T02:46:30;0.50;98.60
13488;DHT22;6816;48.506;9.050;2023-03-01T02:49:34;0.50;98.80
13488;DHT22;6816;48.506;9.050;2023-03-01T02:53:07;0.50;98.70
13488;DHT22;6816;48.506;9.050;2023-03-01T02:56:08;0.60;97.70
13488;DHT22;6816;48.506;9.050;2023-03-01T02:59:13;0.60;98.90
13488;DHT22;6816;48.506;9.050;2023-03-01T03:02:32;0.70;99.00
13488;DHT22;6816;48.506;9.050;2023-03-01T03:05:36;0.70;98.00
13488;DHT22;6816;48.506;9.050;2023-03-01T03:08:36;0.70;99.10
13488;DHT22;6816;48.506;9.050;2023-03-01T03:11:37;0.80;99.20
13488;DHT22;6816;48.506;9.050;2023-03-01T03:14:39;0.80;99.20
13488;DHT22;6816;48.506;9.050;2023-03-01T03:17:41;0.90;99.30
13488;DHT22;6816;48.506;9.050;2023-03-01T03:20:44;0.90;99.20
13488;DHT22;6816;48.506;9.050;2023-03-01T03:23:45;0.90;99.30
13488;DHT22;6816;48.506;9.050;2023-03-01T03:26:45;1.00;99.50
13488;DHT22;6816;48.506;9.050;2023-03-01T03:29:46;1.00;99.50
13488;DHT22;6816;48.506;9.050;2023-03-01T03:32:47;1.00;99.50
13488;DHT22;6816;48.506;9.050;2023-03-01T03:35:53;1.10;99.50
13488;DHT22;6816;48.506;9.050;2023-03-01T03:38:54;1.20;99.70
13488;DHT22;6816;48.506;9.050;2023-03-01T03:41:55;1.10;99.70
13488;DHT22;6816;48.506;9.050;2023-03-01T03:44:55;1.20;99.70
13488;DHT22;6816;48.506;9.050;2023-03-01T03:47:56;1.20;99.80
13488;DHT22;6816;48.506;9.050;2023-03-01T03:50:56;1.20;99.70
13488;DHT22;6816;48.506;9.050;2023-03-01T03:53:57;1.20;99.70
13488;DHT22;6816;48.506;9.050;2023-03-01T03:56:58;1.30;99.80
13488;DHT22;6816;48.506;9.050;2023-03-01T03:59:58;1.30;99.80
13488;DHT22;6816;48.506;9.050;2023-03-01T04:02:59;1.30;99.80
13488;DHT22;6816;48.506;9.050;2023-03-01T04:06:01;1.30;99.80
13488;DHT22;6816;48.506;9.050;2023-03-01T04:09:02;1.40;99.80
13488;DHT22;6816;48.506;9.050;2023-03-01T04:12:03;1.40;99.80
13488;DHT22;6816;48.506;9.050;2023-03-01T04:15:05;1.40;99.90
13488;DHT22;6816;48.506;9.050;2023-03-01T04:18:15;1.40;99.80
13488;DHT22;6816;48.506;9.050;2023-03-01T04:21:16;1.40;99.70
13488;DHT22;6816;48.506;9.050;2023-03-01T04:24:17;1.50;99.90
13488;DHT22;6816;48.506;9.050;2023-03-01T04:27:17;1.50;99.90
13488;DHT22;6816;48.506;9.050;2023-03-01T04:30:18;1.50;99.90
13488;DHT22;6816;48.506;9.050;2023-03-01T04:33:19;1.50;99.90
13488;DHT22;6816;48.506;9.050;2023-03-01T04:36:23;1.50;99.90
13488;DHT22;6816;48.506;9.050;2023-03-01T04:39:24;1.50;99.70
13488;DHT22;6816;48.506;9.050;2023-03-01T04:42:24;1.60;99.90
13488;DHT22;6816;48.506;9.050;2023-03-01T04:45:25;1.60;99.90
13488;DHT22;6816;48.506;9.050;2023-03-01T04:48:26;1.60;99.90
13488;DHT22;6816;48.506;9.050;2023-03-01T04:51:26;1.60;99.90
13488;DHT22;6816;48.506;9.050;2023-03-01T04:54:28;1.60;99.90
13488;DHT22;6816;48.506;9.050;2023-03-01T04:57:29;1.60;99.90
13488;DHT22;6816;48.506;9.050;2023-03-01T05:00:30;1.60;99.90
13488;DHT22;6816;48.506;9.050;2023-03-01T05:03:30;1.60;99.90
13488;DHT22;6816;48.506;9.050;2023-03-01T05:06:31;1.70;99.90
13488;DHT22;6816;48.506;9.050;2023-03-01T05:09:31;1.70;99.90
13488;DHT22;6816;48.506;9.050;2023-03-01T05:12:32;1.70;99.90
13488;DHT22;6816;48.506;9.050;2023-03-01T05:15:33;1.70;99.90
13488;DHT22;6816;48.506;9.050;2023-03-01T05:18:33;1.70;99.90
13488;DHT22;6816;48.506;9.050;2023-03-01T05:21:39;1.70;99.90
13488;DHT22;6816;48.506;9.050;2023-03-01T05:25:00;1.70;99.90
13488;DHT22;6816;48.506;9.050;2023-03-01T05:28:02;1.70;99.90
13488;DHT22;6816;48.506;9.050;2023-03-01T05:31:04;1.80;99.90
13488;DHT22;6816;48.506;9.050;2023-03-01T05:34:10;1.80;99.90
13488;DHT22;6816;48.506;9.050;2023-03-01T05:37:13;1.80;99.90
13488;DHT22;6816;48.506;9.050;2023-03-01T05:40:16;1.80;99.90
13488;DHT22;6816;48.506;9.050;2023-03-01T05:43:17;1.80;99.90
13488;DHT22;6816;48.506;9.050;2023-03-01T05:46:18;1.80;99.90
13488;DHT22;6816;48.506;9.050;2023-03-01T05:49:19;1.90;99.90
13488;DHT22;6816;48.506;9.050;2023-03-01T05:52:20;1.90;99.90
13488;DHT22;6816;48.506;9.050;2023-03-01T05:55:21;1.90;99.90
13488;DHT22;6816;48.506;9.050;2023-03-01T05:58:22;1.90;99.90
13488;DHT22;6816;48.506;9.050;2023-03-01T06:01:23;1.90;99.90
13488;DHT22;6816;48.506;9.050;2023-03-01T06:04:25;1.90;99.90
13488;DHT22;6816;48.506;9.050;2023-03-01T06:07:25;1.90;99.90
13488;DHT22;6816;48.506;9.050;2023-03-01T06:10:26;2.00;99.90
13488;DHT22;6816;48.506;9.050;2023-03-01T06:13:27;2.00;99.90
13488;DHT22;6816;48.506;9.050;2023-03-01T06:16:27;2.00;99.90
13488;DHT22;6816;48.506;9.050;2023-03-01T06:19:28;2.00;99.90
13488;DHT22;6816;48.506;9.050;2023-03-01T06:22:29;2.10;99.90
13488;DHT22;6816;48.506;9.050;2023-03-01T06:25:29;2.10;99.90
13488;DHT22;6816;48.506;9.050;2023-03-01T06:28:30;2.10;99.90
13488;DHT22;6816;48.506;9.050;2023-03-01T06:31:31;2.10;99.90
13488;DHT22;6816;48.506;9.050;2023-03-01T06:34:31;2.10;99.90
13488;DHT22;6816;48.506;9.050;2023-03-01T06:37:32;2.10;99.90
13488;DHT22;6816;48.506;9.050;2023-03-01T06:40:33;2.10;99.90
13488;DHT22;6816;48.506;9.050;2023-03-01T06:43:35;2.20;99.90
13488;DHT22;6816;48.506;9.050;2023-03-01T06:46:36;2.20;99.90
13488;DHT22;6816;48.506;9.050;2023-03-01T06:49:36;2.30;99.90
13488;DHT22;6816;48.506;9.050;2023-03-01T06:52:38;2.30;99.90
13488;DHT22;6816;48.506;9.050;2023-03-01T06:55:38;2.40;99.90
13488;DHT22;6816;48.506;9.050;2023-03-01T06:58:40;2.30;99.90
13488;DHT22;6816;48.506;9.050;2023-03-01T07:01:40;2.30;99.90
13488;DHT22;6816;48.506;9.050;2023-03-01T07:04:42;2.40;99.90
13488;DHT22;6816;48.506;9.050;2023-03-01T07:07:42;2.40;99.90
13488;DHT22;6816;48.506;9.050;2023-03-01T07:10:43;2.40;99.90
13488;DHT22;6816;48.506;9.050;2023-03-01T07:13:44;2.40;99.90
13488;DHT22;6816;48.506;9.050;2023-03-01T07:16:44;2.40;99.90
13488;DHT22;6816;48.506;9.050;2023-03-01T07:19:45;2.50;99.90
13488;DHT22;6816;48.506;9.050;2023-03-01T07:22:45;2.50;99.90
13488;DHT22;6816;48.506;9.050;2023-03-01T07:25:53;2.50;99.90
13488;DHT22;6816;48.506;9.050;2023-03-01T07:28:54;2.50;99.30
13488;DHT22;6816;48.506;9.050;2023-03-01T07:31:55;2.50;99.90
13488;DHT22;6816;48.506;9.050;2023-03-01T07:34:55;2.70;99.90
13488;DHT22;6816;48.506;9.050;2023-03-01T07:37:56;2.70;99.90
13488;DHT22;6816;48.506;9.050;2023-03-01T07:41:01;2.70;99.90
13488;DHT22;6816;48.506;9.050;2023-03-01T07:44:02;2.70;99.60
13488;DHT22;6816;48.506;9.050;2023-03-01T07:47:04;2.80;99.90
13488;DHT22;6816;48.506;9.050;2023-03-01T07:50:05;2.80;99.90
13488;DHT22;6816;48.506;9.050;2023-03-01T07:53:06;2.90;99.90
13488;DHT22;6816;48.506;9.050;2023-03-01T07:56:12;2.90;99.90
13488;DHT22;6816;48.506;9.050;2023-03-01T07:59:13;3.00;99.70
13488;DHT22;6816;48.506;9.050;2023-03-01T08:02:14;3.10;99.90
13488;DHT22;6816;48.506;9.050;2023-03-01T08:05:15;3.10;99.90
13488;DHT22;6816;48.506;9.050;2023-03-01T08:08:16;3.20;99.90
13488;DHT22;6816;48.506;9.050;2023-03-01T08:11:16;3.20;99.90
13488;DHT22;6816;48.506;9.050;2023-03-01T08:14:17;3.30;99.90
13488;DHT22;6816;48.506;9.050;2023-03-01T08:17:18;3.30;99.90
13488;DHT22;6816;48.506;9.050;2023-03-01T08:20:19;3.40;99.90
13488;DHT22;6816;48.506;9.050;2023-03-01T08:23:19;3.50;99.90
13488;DHT22;6816;48.506;9.050;2023-03-01T08:26:20;3.50;99.90
13488;DHT22;6816;48.506;9.050;2023-03-01T08:29:22;3.60;99.90
13488;DHT22;6816;48.506;9.050;2023-03-01T08:32:24;3.60;99.90
13488;DHT22;6816;48.506;9.050;2023-03-01T08:35:25;3.70;99.90
13488;DHT22;6816;48.506;9.050;2023-03-01T08:38:26;3.80;99.90
13488;DHT22;6816;48.506;9.050;2023-03-01T08:41:27;3.90;99.90
13488;DHT22;6816;48.506;9.050;2023-03-01T08:44:28;3.90;99.90
13488;DHT22;6816;48.506;9.050;2023-03-01T08:47:28;4.10;99.90
13488;DHT22;6816;48.506;9.050;2023-03-01T08:50:29;4.20;99.90
13488;DHT22;6816;48.506;9.050;2023-03-01T08:53:29;4.10;99.90
13488;DHT22;6816;48.506;9.050;2023-03-01T08:56:30;4.20;99.90
13488;DHT22;6816;48.506;9.050;2023-03-01T08:59:31;4.30;99.90
13488;DHT22;6816;48.506;9.050;2023-03-01T09:02:37;4.40;99.90
13488;DHT22;6816;48.506;9.050;2023-03-01T09:05:39;4.60;99.90
13488;DHT22;6816;48.506;9.050;2023-03-01T09:08:41;4.60;99.90
13488;DHT22;6816;48.506;9.050;2023-03-01T09:11:43;4.70;99.90
13488;DHT22;6816;48.506;9.050;2023-03-01T09:14:46;4.80;99.90
13488;DHT22;6816;48.506;9.050;2023-03-01T09:17:46;4.80;99.90
13488;DHT22;6816;48.506;9.050;2023-03-01T09:20:47;4.90;99.90
13488;DHT22;6816;48.506;9.050;2023-03-01T09:23:48;5.00;99.90
13488;DHT22;6816;48.506;9.050;2023-03-01T09:26:49;5.10;99.90
13488;DHT22;6816;48.506;9.050;2023-03-01T09:29:50;5.10;99.90
13488;DHT22;6816;48.506;9.050;2023-03-01T09:32:50;5.20;99.90
13488;DHT22;6816;48.506;9.050;2023-03-01T09:35:59;5.30;99.90
13488;DHT22;6816;48.506;9.050;2023-03-01T09:39:01;5.40;99.90
13488;DHT22;6816;48.506;9.050;2023-03-01T09:42:03;5.50;99.90
13488;DHT22;6816;48.506;9.050;2023-03-01T09:45:11;5.60;99.90
13488;DHT22;6816;48.506;9.050;2023-03-01T09:48:21;5.70;99.90
13488;DHT22;6816;48.506;9.050;2023-03-01T09:51:35;5.80;99.90
13488;DHT22;6816;48.506;9.050;2023-03-01T09:54:37;6.00;99.70
13488;DHT22;6816;48.506;9.050;2023-03-01T10:00:47;6.10;99.90
13488;DHT22;6816;48.506;9.050;2023-03-01T10:04:36;6.20;99.90
13488;DHT22;6816;48.506;9.050;2023-03-01T10:07:36;6.30;99.40
13488;DHT22;6816;48.506;9.050;2023-03-01T10:10:40;6.40;99.90
13488;DHT22;6816;48.506;9.050;2023-03-01T10:13:59;6.50;99.90
13488;DHT22;6816;48.506;9.050;2023-03-01T10:17:03;6.60;99.90
13488;DHT22;6816;48.506;9.050;2023-03-01T10:23:22;6.70;99.00
13488;DHT22;6816;48.506;9.050;2023-03-01T10:29:43;6.90;99.90
13488;DHT22;6816;48.506;9.050;2023-03-01T10:32:48;7.10;99.90
13488;DHT22;6816;48.506;9.050;2023-03-01T10:35:50;7.30;99.90
13488;DHT22;6816;48.506;9.050;2023-03-01T10:38:54;7.40;99.90
13488;DHT22;6816;48.506;9.050;2023-03-01T10:42:01;7.60;99.90
13488;DHT22;6816;48.506;9.050;2023-03-01T10:48:26;8.00;98.60
13488;DHT22;6816;48.506;9.050;2023-03-01T10:51:27;8.10;99.90
13488;DHT22;6816;48.506;9.050;2023-03-01T10:54:31;8.30;99.90
13488;DHT22;6816;48.506;9.050;2023-03-01T10:57:35;8.50;99.90
13488;DHT22;6816;48.506;9.050;2023-03-01T11:00:47;8.60;99.90
13488;DHT22;6816;48.506;9.050;2023-03-01T11:07:06;8.80;98.20
13488;DHT22;6816;48.506;9.050;2023-03-01T11:10:21;8.90;99.90
13488;DHT22;6816;48.506;9.050;2023-03-01T11:13:22;9.00;98.60
13488;DHT22;6816;48.506;9.050;2023-03-01T11:16:44;9.10;99.90
13488;DHT22;6816;48.506;9.050;2023-03-01T11:23:13;9.40;97.30
13488;DHT22;6816;48.506;9.050;2023-03-01T11:26:15;9.40;99.90
13488;DHT22;6816;48.506;9.050;2023-03-01T11:29:37;9.50;99.90
13488;DHT22;6816;48.506;9.050;2023-03-01T11:32:50;9.60;96.00
13488;DHT22;6816;48.506;9.050;2023-03-01T11:39:33;9.70;96.30
13488;DHT22;6816;48.506;9.050;2023-03-01T11:42:52;9.70;94.20
13488;DHT22;6816;48.506;9.050;2023-03-01T12:06:35;11.10;99.70
13488;DHT22;6816;48.506;9.050;2023-03-01T12:13:38;11.80;99.90
13488;DHT22;6816;48.506;9.050;2023-03-01T12:26:34;13.10;94.50
13488;DHT22;6816;48.506;9.050;2023-03-01T12:30:03;13.20;99.90
13488;DHT22;6816;48.506;9.050;2023-03-01T12:33:26;13.50;95.30
13488;DHT22;6816;48.506;9.050;2023-03-01T12:36:35;13.70;94.90
13488;DHT22;6816;48.506;9.050;2023-03-01T12:39:51;13.90;97.90
13488;DHT22;6816;48.506;9.050;2023-03-01T12:43:14;13.90;94.90
13488;DHT22;6816;48.506;9.050;2023-03-01T12:49:45;14.10;91.60
13488;DHT22;6816;48.506;9.050;2023-03-01T12:52:51;14.00;92.20
13488;DHT22;6816;48.506;9.050;2023-03-01T12:55:54;13.90;93.10
13488;DHT22;6816;48.506;9.050;2023-03-01T13:08:44;13.90;91.50
13488;DHT22;6816;48.506;9.050;2023-03-01T13:11:49;13.90;93.40
13488;DHT22;6816;48.506;9.050;2023-03-01T13:14:54;13.90;95.00
13488;DHT22;6816;48.506;9.050;2023-03-01T13:21:11;14.10;91.10
13488;DHT22;6816;48.506;9.050;2023-03-01T13:24:37;14.00;93.40
13488;DHT22;6816;48.506;9.050;2023-03-01T13:27:38;14.00;90.10
13488;DHT22;6816;48.506;9.050;2023-03-01T13:30:41;13.90;93.30
13488;DHT22;6816;48.506;9.050;2023-03-01T13:33:52;13.80;92.30
13488;DHT22;6816;48.506;9.050;2023-03-01T13:36:53;13.80;90.80
13488;DHT22;6816;48.506;9.050;2023-03-01T13:43:38;13.80;91.30
13488;DHT22;6816;48.506;9.050;2023-03-01T13:46:40;13.80;89.50
13488;DHT22;6816;48.506;9.050;2023-03-01T13:52:57;13.90;92.40
13488;DHT22;6816;48.506;9.050;2023-03-01T13:56:19;13.90;92.80
13488;DHT22;6816;48.506;9.050;2023-03-01T13:59:21;13.90;90.10
13488;DHT22;6816;48.506;9.050;2023-03-01T14:02:22;13.90;92.30
13488;DHT22;6816;48.506;9.050;2023-03-01T14:05:23;13.90;92.70
13488;DHT22;6816;48.506;9.050;2023-03-01T14:08:26;13.80;92.50
13488;DHT22;6816;48.506;9.050;2023-03-01T14:11:49;13.70;91.60
13488;DHT22;6816;48.506;9.050;2023-03-01T14:18:18;13.40;86.00
13488;DHT22;6816;48.506;9.050;2023-03-01T14:21:20;13.20;89.50
13488;DHT22;6816;48.506;9.050;2023-03-01T14:24:23;13.10;90.50
13488;DHT22;6816;48.506;9.050;2023-03-01T14:27:32;12.70;90.70
13488;DHT22;6816;48.506;9.050;2023-03-01T14:30:41;12.50;87.00
13488;DHT22;6816;48.506;9.050;2023-03-01T14:33:42;12.30;89.00
13488;DHT22;6816;48.506;9.050;2023-03-01T14:36:42;12.20;91.00
13488;DHT22;6816;48.506;9.050;2023-03-01T14:39:43;12.00;91.20
13488;DHT22;6816;48.506;9.050;2023-03-01T14:42:44;11.90;91.40
13488;DHT22;6816;48.506;9.050;2023-03-01T14:45:48;11.70;91.60
13488;DHT22;6816;48.506;9.050;2023-03-01T14:48:55;11.70;90.90
13488;DHT22;6816;48.506;9.050;2023-03-01T14:52:04;11.60;91.00
13488;DHT22;6816;48.506;9.050;2023-03-01T14:55:19;11.40;90.70
13488;DHT22;6816;48.506;9.050;2023-03-01T14:58:23;11.40;90.20
13488;DHT22;6816;48.506;9.050;2023-03-01T15:01:24;11.30;91.50
13488;DHT22;6816;48.506;9.050;2023-03-01T15:04:26;11.30;92.00
13488;DHT22;6816;48.506;9.050;2023-03-01T15:07:36;11.20;91.90
13488;DHT22;6816;48.506;9.050;2023-03-01T15:10:39;11.10;91.40
13488;DHT22;6816;48.506;9.050;2023-03-01T15:13:43;11.10;92.60
13488;DHT22;6816;48.506;9.050;2023-03-01T15:16:46;11.10;92.50
13488;DHT22;6816;48.506;9.050;2023-03-01T15:19:49;11.00;92.70
13488;DHT22;6816;48.506;9.050;2023-03-01T15:22:50;11.00;92.40
13488;DHT22;6816;48.506;9.050;2023-03-01T15:25:52;10.90;92.20
13488;DHT22;6816;48.506;9.050;2023-03-01T15:29:01;10.90;92.30
13488;DHT22;6816;48.506;9.050;2023-03-01T15:32:03;11.10;92.30
13488;DHT22;6816;48.506;9.050;2023-03-01T15:35:39;10.80;92.40
13488;DHT22;6816;48.506;9.050;2023-03-01T15:38:55;10.80;87.20
13488;DHT22;6816;48.506;9.050;2023-03-01T15:41:57;10.80;90.40
13488;DHT22;6816;48.506;9.050;2023-03-01T15:48:19;10.70;90.30
13488;DHT22;6816;48.506;9.050;2023-03-01T15:51:35;10.60;90.40
13488;DHT22;6816;48.506;9.050;2023-03-01T15:54:36;10.50;91.30
13488;DHT22;6816;48.506;9.050;2023-03-01T15:57:38;10.50;92.70
13488;DHT22;6816;48.506;9.050;2023-03-01T16:00:39;10.40;92.70
13488;DHT22;6816;48.506;9.050;2023-03-01T16:03:40;10.40;92.80
13488;DHT22;6816;48.506;9.050;2023-03-01T16:06:41;10.40;92.50
13488;DHT22;6816;48.506;9.050;2023-03-01T16:09:41;10.30;92.40
13488;DHT22;6816;48.506;9.050;2023-03-01T16:12:44;10.20;92.50
13488;DHT22;6816;48.506;9.050;2023-03-01T16:15:45;10.30;92.40
13488;DHT22;6816;48.506;9.050;2023-03-01T16:18:46;10.20;92.20
13488;DHT22;6816;48.506;9.050;2023-03-01T16:21:47;10.10;92.50
13488;DHT22;6816;48.506;9.050;2023-03-01T16:24:49;10.00;92.50
13488;DHT22;6816;48.506;9.050;2023-03-01T16:27:50;10.00;92.30
13488;DHT22;6816;48.506;9.050;2023-03-01T16:30:51;9.90;92.30
13488;DHT22;6816;48.506;9.050;2023-03-01T16:33:54;9.90;92.30
13488;DHT22;6816;48.506;9.050;2023-03-01T16:36:55;9.80;92.00
13488;DHT22;6816;48.506;9.050;2023-03-01T16:39:55;9.80;92.50
13488;DHT22;6816;48.506;9.050;2023-03-01T16:42:57;9.70;92.60
13488;DHT22;6816;48.506;9.050;2023-03-01T16:45:59;9.70;92.00
13488;DHT22;6816;48.506;9.050;2023-03-01T16:49:00;9.60;92.50
13488;DHT22;6816;48.506;9.050;2023-03-01T16:52:01;9.60;92.40
13488;DHT22;6816;48.506;9.050;2023-03-01T16:55:06;9.50;92.40
13488;DHT22;6816;48.506;9.050;2023-03-01T16:58:07;9.40;91.50
13488;DHT22;6816;48.506;9.050;2023-03-01T17:01:17;9.40;92.50
13488;DHT22;6816;48.506;9.050;2023-03-01T17:04:18;9.40;91.20
13488;DHT22;6816;48.506;9.050;2023-03-01T17:07:19;9.30;92.90
13488;DHT22;6816;48.506;9.050;2023-03-01T17:10:20;9.20;92.20
13488;DHT22;6816;48.506;9.050;2023-03-01T17:13:23;9.10;92.10
13488;DHT22;6816;48.506;9.050;2023-03-01T17:16:23;9.10;91.60
13488;DHT22;6816;48.506;9.050;2023-03-01T17:19:24;9.00;92.30
13488;DHT22;6816;48.506;9.050;2023-03-01T17:22:24;8.90;92.20
13488;DHT22;6816;48.506;9.050;2023-03-01T17:25:25;8.90;92.20
13488;DHT22;6816;48.506;9.050;2023-03-01T17:28:28;8.80;92.20
13488;DHT22;6816;48.506;9.050;2023-03-01T17:31:31;8.70;92.00
13488;DHT22;6816;48.506;9.050;2023-03-01T17:34:32;8.70;91.90
13488;DHT22;6816;48.506;9.050;2023-03-01T17:37:33;8.60;92.20
13488;DHT22;6816;48.506;9.050;2023-03-01T17:40:34;8.50;92.00
13488;DHT22;6816;48.506;9.050;2023-03-01T17:43:37;8.50;92.00
13488;DHT22;6816;48.506;9.050;2023-03-01T17:46:37;8.50;92.00
13488;DHT22;6816;48.506;9.050;2023-03-01T17:49:38;8.30;92.10
13488;DHT22;6816;48.506;9.050;2023-03-01T17:52:39;8.30;92.10
13488;DHT22;6816;48.506;9.050;2023-03-01T17:55:42;8.20;92.30
13488;DHT22;6816;48.506;9.050;2023-03-01T17:58:43;8.20;92.00
13488;DHT22;6816;48.506;9.050;2023-03-01T18:01:44;8.10;92.60
13488;DHT22;6816;48.506;9.050;2023-03-01T18:04:45;8.10;92.70
13488;DHT22;6816;48.506;9.050;2023-03-01T18:07:45;8.10;92.80
13488;DHT22;6816;48.506;9.050;2023-03-01T18:10:46;8.10;92.90
13488;DHT22;6816;48.506;9.050;2023-03-01T18:13:47;8.10;92.80
13488;DHT22;6816;48.506;9.050;2023-03-01T18:16:49;8.10;92.90
13488;DHT22;6816;48.506;9.050;2023-03-01T18:19:49;8.10;92.80
13488;DHT22;6816;48.506;9.050;2023-03-01T18:22:50;8.10;93.00
13488;DHT22;6816;48.506;9.050;2023-03-01T18:26:00;8.10;92.90
13488;DHT22;6816;48.506;9.050;2023-03-01T18:29:01;8.10;92.00
13488;DHT22;6816;48.506;9.050;2023-03-01T18:32:04;8.20;92.80
13488;DHT22;6816;48.506;9.050;2023-03-01T18:35:06;8.10;92.60
13488;DHT22;6816;48.506;9.050;2023-03-01T18:38:07;8.00;92.50
13488;DHT22;6816;48.506;9.050;2023-03-01T18:41:08;8.10;92.80
13488;DHT22;6816;48.506;9.050;2023-03-01T18:44:08;8.00;92.70
13488;DHT22;6816;48.506;9.050;2023-03-01T18:47:09;8.00;92.70
13488;DHT22;6816;48.506;9.050;2023-03-01T18:50:10;7.90;92.80
13488;DHT22;6816;48.506;9.050;2023-03-01T18:53:11;7.90;92.80
13488;DHT22;6816;48.506;9.050;2023-03-01T18:56:12;7.90;92.90
13488;DHT22;6816;48.506;9.050;2023-03-01T18:59:13;7.80;92.90
13488;DHT22;6816;48.506;9.050;2023-03-01T19:02:13;7.80;93.00
13488;DHT22;6816;48.506;9.050;2023-03-01T19:05:14;7.80;92.90
13488;DHT22;6816;48.506;9.050;2023-03-01T19:08:15;7.80;92.90
13488;DHT22;6816;48.506;9.050;2023-03-01T19:11:16;7.80;92.80
13488;DHT22;6816;48.506;9.050;2023-03-01T19:14:17;7.70;92.70
13488;DHT22;6816;48.506;9.050;2023-03-01T19:17:17;7.70;92.80
13488;DHT22;6816;48.506;9.050;2023-03-01T19:20:19;7.70;92.70
13488;DHT22;6816;48.506;9.050;2023-03-01T19:23:19;7.60;92.80
13488;DHT22;6816;48.506;9.050;2023-03-01T19:26:23;7.50;92.70
13488;DHT22;6816;48.506;9.050;2023-03-01T19:29:23;7.60;92.50
13488;DHT22;6816;48.506;9.050;2023-03-01T19:32:24;7.40;92.60
13488;DHT22;6816;48.506;9.050;2023-03-01T19:35:25;7.40;92.90
13488;DHT22;6816;48.506;9.050;2023-03-01T19:38:26;7.30;92.60
13488;DHT22;6816;48.506;9.050;2023-03-01T19:41:28;7.40;92.70
13488;DHT22;6816;48.506;9.050;2023-03-01T19:44:30;7.20;92.90
13488;DHT22;6816;48.506;9.050;2023-03-01T19:47:31;7.20;92.70
13488;DHT22;6816;48.506;9.050;2023-03-01T19:50:31;7.10;93.00
13488;DHT22;6816;48.506;9.050;2023-03-01T19:53:32;7.10;93.10
13488;DHT22;6816;48.506;9.050;2023-03-01T19:56:33;7.00;93.00
13488;DHT22;6816;48.506;9.050;2023-03-01T19:59:34;7.00;93.10
13488;DHT22;6816;48.506;9.050;2023-03-01T20:02:34;7.00;93.10
13488;DHT22;6816;48.506;9.050;2023-03-01T20:05:36;7.10;93.20
13488;DHT22;6816;48.506;9.050;2023-03-01T20:08:37;6.90;93.10
13488;DHT22;6816;48.506;9.050;2023-03-01T20:11:37;6.90;93.20
13488;DHT22;6816;48.506;9.050;2023-03-01T20:14:38;6.90;93.10
13488;DHT22;6816;48.506;9.050;2023-03-01T20:17:39;6.90;93.00
13488;DHT22;6816;48.506;9.050;2023-03-01T20:20:40;6.80;92.90
13488;DHT22;6816;48.506;9.050;2023-03-01T20:23:40;6.80;92.80
13488;DHT22;6816;48.506;9.050;2023-03-01T20:26:41;6.80;92.70
13488;DHT22;6816;48.506;9.050;2023-03-01T20:29:41;6.70;92.50
13488;DHT22;6816;48.506;9.050;2023-03-01T20:32:42;6.60;92.50
13488;DHT22;6816;48.506;9.050;2023-03-01T20:35:43;6.60;92.40
13488;DHT22;6816;48.506;9.050;2023-03-01T20:38:43;6.50;92.40
13488;DHT22;6816;48.506;9.050;2023-03-01T20:41:44;6.40;92.40
13488;DHT22;6816;48.506;9.050;2023-03-01T20:44:45;6.30;92.50
13488;DHT22;6816;48.506;9.050;2023-03-01T20:47:46;6.30;92.50
13488;DHT22;6816;48.506;9.050;2023-03-01T20:50:47;6.20;92.60
13488;DHT22;6816;48.506;9.050;2023-03-01T20:53:47;6.20;92.70
13488;DHT22;6816;48.506;9.050;2023-03-01T20:56:48;6.20;92.70
13488;DHT22;6816;48.506;9.050;2023-03-01T20:59:49;6.00;92.70
13488;DHT22;6816;48.506;9.050;2023-03-01T21:02:50;6.00;92.70
13488;DHT22;6816;48.506;9.050;2023-03-01T21:05:53;5.90;92.70
13488;DHT22;6816;48.506;9.050;2023-03-01T21:08:54;5.80;92.60
13488;DHT22;6816;48.506;9.050;2023-03-01T21:11:55;5.70;92.60
13488;DHT22;6816;48.506;9.050;2023-03-01T21:14:56;5.70;92.60
13488;DHT22;6816;48.506;9.050;2023-03-01T21:17:56;5.60;92.60
13488;DHT22;6816;48.506;9.050;2023-03-01T21:21:03;5.50;92.40
13488;DHT22;6816;48.506;9.050;2023-03-01T21:24:05;5.40;91.90
13488;DHT22;6816;48.506;9.050;2023-03-01T21:27:09;5.30;92.40
13488;DHT22;6816;48.506;9.050;2023-03-01T21:30:10;5.20;92.40
13488;DHT22;6816;48.506;9.050;2023-03-01T21:33:11;5.10;92.40